Details for Thomas Cook Airlines at EGSS




Go Back


Latest METAR
Local Time

EGSS 221020Z AUTO 25008KT 9999 NCD 13/08 Q1019
22/09/2018, 11:47:43

Description
Results
Thomas Cook Airlines Logo
Number of Pilots based at EGSS
1 Pilots Based here
Number of Thomas Cook Airlines Flights Departed from EGSS
0 Flights Departed
Number of Thomas Cook Airlines Flights Arrived at EGSS
0 Flights Arrived
Number of Thomas Cook Airlines Schedules Departing from EGSS
9 Schedules
Number of Thomas Cook Airlines Schedules Arriving at EGSS
11 Schedules
Number of Thomas Cook Airlines Schedules Departing from EGSS availible today
2 Schedules Today
Number of Thomas Cook Airlines Schedules Arriving at EGSS availible today
2 Schedules Today
Average Landing Rate at EGSS
-215 fpm
Thomas Cook Airlines Average Landing Rate at EGSS
0 fpm
Total Fuel Purchased at EGSS by Thomas Cook Airlines
0.00 kgs / 0.00 lbs

Pilots Based at EGSS


Pilot ID
Pilot Name
Pilot Rank
No. of Flights
No. of Flying Hours
Joerg Pfeiffer
42
55.02
Content